Time,TemperatureF,DewpointF,PressureIn,WindDirection,WindDirectionDegrees,WindSpeedMPH,WindSpeedGustMPH,Humidity,HourlyPrecipIn,Conditions,Clouds,dailyrainin,SoftwareType,DateUTC
2013-05-25 00:02:00,53.0,49.5,30.27,ESE,115,0.0,0.0,88,0.03,RA,,0.00,WeatherDisplay:10.37,2013-05-25 05:02:00,
2013-05-25 00:07:00,53.0,49.5,30.27,ESE,108,0.0,0.0,88,0.03,RA,,0.00,WeatherDisplay:10.37,2013-05-25 05:07:00,
2013-05-25 00:12:00,52.9,49.4,30.27,ESE,119,0.0,0.0,88,0.02,CLR,,0.00,WeatherDisplay:10.37,2013-05-25 05:12:00,
2013-05-25 00:17:00,52.8,49.3,30.27,ESE,112,0.0,0.0,88,0.04,RA,,0.02,WeatherDisplay:10.37,2013-05-25 05:17:00,
2013-05-25 00:22:00,52.7,49.2,30.26,East,95,3.5,3.5,88,0.04,RA,,0.02,WeatherDisplay:10.37,2013-05-25 05:22:00,
2013-05-25 00:27:00,52.6,49.1,30.26,East,96,3.5,3.5,88,0.05,RA,,0.03,WeatherDisplay:10.37,2013-05-25 05:27:00,
2013-05-25 00:32:00,52.4,48.9,30.25,East,99,9.2,9.2,88,0.04,RA,,0.03,WeatherDisplay:10.37,2013-05-25 05:32:00,
2013-05-25 00:37:00,52.4,48.9,30.25,ESE,106,6.9,6.9,88,0.04,CLR,,0.03,WeatherDisplay:10.37,2013-05-25 05:37:00,
2013-05-25 00:42:00,52.4,48.9,30.25,ESE,109,0.0,0.0,88,0.04,CLR,,0.03,WeatherDisplay:10.37,2013-05-25 05:42:00,
2013-05-25 00:47:00,52.5,49.0,30.25,ESE,109,4.6,4.6,88,0.04,CLR,,0.03,WeatherDisplay:10.37,2013-05-25 05:47:00,
2013-05-25 00:52:00,52.5,48.7,30.25,ESE,113,13.8,13.8,87,0.04,CLR,,0.03,WeatherDisplay:10.37,2013-05-25 05:52:00,
2013-05-25 00:57:00,52.6,48.8,30.25,ESE,114,0.0,0.0,87,0.03,CLR,,0.03,WeatherDisplay:10.37,2013-05-25 05:57:00,
2013-05-25 01:02:00,52.6,48.5,30.25,ESE,117,3.5,0.0,86,0.03,CLR,,0.03,WeatherDisplay:10.37,2013-05-25 06:02:00,
2013-05-25 01:07:00,52.6,48.5,30.25,SE,129,3.5,3.5,86,0.03,CLR,,0.03,WeatherDisplay:10.37,2013-05-25 06:07:00,
2013-05-25 01:12:00,52.6,48.5,30.25,SE,130,9.2,9.2,86,0.03,CLR,,0.03,WeatherDisplay:10.37,2013-05-25 06:12:00,
2013-05-25 01:17:00,52.6,48.5,30.26,SE,131,2.3,0.0,86,0.01,CLR,,0.03,WeatherDisplay:10.37,2013-05-25 06:17:00,
2013-05-25 01:22:00,52.4,48.3,30.26,SE,139,3.5,0.0,86,0.02,RA,,0.04,WeatherDisplay:10.37,2013-05-25 06:22:00,
2013-05-25 01:27:00,52.3,48.5,30.26,East,101,3.5,3.5,87,0.02,RA,,0.05,WeatherDisplay:10.37,2013-05-25 06:27:00,
2013-05-25 01:32:00,52.2,48.4,30.26,East,95,6.9,6.9,87,0.02,RA,,0.05,WeatherDisplay:10.37,2013-05-25 06:32:00,
2013-05-25 01:37:00,52.1,48.7,30.26,East,96,0.0,0.0,88,0.03,RA,,0.06,WeatherDisplay:10.37,2013-05-25 06:37:00,
2013-05-25 01:42:00,52.1,48.7,30.26,ESE,119,1.2,0.0,88,0.03,RA,,0.06,WeatherDisplay:10.37,2013-05-25 06:42:00,
2013-05-25 01:47:00,52.0,48.6,30.26,ESE,119,4.6,4.6,88,0.03,,,0.06,WeatherDisplay:10.37,2013-05-25 06:47:00,
2013-05-25 01:52:00,52.0,48.6,30.25,SE,132,6.9,6.9,88,0.03,CLR,,0.06,WeatherDisplay:10.37,2013-05-25 06:52:00,
2013-05-25 01:57:00,52.0,48.6,30.25,SE,130,4.6,4.6,88,0.03,CLR,,0.06,WeatherDisplay:10.37,2013-05-25 06:57:00,
2013-05-25 02:02:00,51.9,48.5,30.25,East,100,0.0,0.9,88,0.03,CLR,,0.06,WeatherDisplay:10.37,2013-05-25 07:02:00,
2013-05-25 02:07:00,51.9,48.5,30.25,ESE,105,6.9,6.9,88,0.03,CLR,,0.06,WeatherDisplay:10.37,2013-05-25 07:07:00,
2013-05-25 02:12:00,51.9,48.5,30.25,SE,136,4.6,4.6,88,0.03,CLR,,0.06,WeatherDisplay:10.37,2013-05-25 07:12:00,
2013-05-25 02:17:00,51.9,48.5,30.24,ESE,103,3.5,3.5,88,0.03,CLR,,0.06,WeatherDisplay:10.37,2013-05-25 07:17:00,
2013-05-25 02:22:00,51.9,48.5,30.23,ESE,110,5.8,5.8,88,0.02,CLR,,0.06,WeatherDisplay:10.37,2013-05-25 07:22:00,
2013-05-25 02:27:00,51.9,48.5,30.23,ESE,121,5.8,5.8,88,0.01,CLR,,0.06,WeatherDisplay:10.37,2013-05-25 07:27:00,
2013-05-25 02:32:00,51.9,48.5,30.23,SE,144,6.9,6.9,88,0.01,CLR,,0.06,WeatherDisplay:10.37,2013-05-25 07:32:00,
2013-05-25 02:37:00,51.9,48.5,30.23,ESE,122,0.0,1.9,88,0.00,CLR,,0.06,WeatherDisplay:10.37,2013-05-25 07:37:00,
2013-05-25 02:42:00,51.9,48.5,30.23,SE,128,11.5,11.5,88,0.00,CLR,,0.06,WeatherDisplay:10.37,2013-05-25 07:42:00,
2013-05-25 02:47:00,52.0,48.6,30.23,ESE,121,9.2,9.2,88,0.00,CLR,,0.06,WeatherDisplay:10.37,2013-05-25 07:47:00,
2013-05-25 02:52:00,52.0,48.6,30.23,ESE,108,10.4,10.4,88,0.00,CLR,,0.06,WeatherDisplay:10.37,2013-05-25 07:52:00,
2013-05-25 02:57:00,52.0,48.6,30.23,South,180,9.2,9.2,88,0.00,CLR,,0.06,WeatherDisplay:10.37,2013-05-25 07:57:00,
2013-05-25 03:03:00,52.0,48.6,30.23,SE,130,0.0,0.0,88,0.00,CLR,,0.06,WeatherDisplay:10.37,2013-05-25 08:03:00,
2013-05-25 03:08:00,52.0,48.6,30.23,East,93,4.6,4.6,88,0.00,CLR,,0.06,WeatherDisplay:10.37,2013-05-25 08:08:00,
2013-05-25 03:13:00,52.0,48.6,30.23,SE,132,5.8,5.8,88,0.00,CLR,,0.06,WeatherDisplay:10.37,2013-05-25 08:13:00,
2013-05-25 03:18:00,52.0,48.6,30.23,SE,129,3.5,3.5,88,0.00,CLR,,0.06,WeatherDisplay:10.37,2013-05-25 08:18:00,
2013-05-25 03:23:00,52.0,48.6,30.23,ESE,109,9.2,9.2,88,0.00,CLR,,0.06,WeatherDisplay:10.37,2013-05-25 08:23:00,
2013-05-25 03:28:00,52.0,48.6,30.24,SE,124,4.6,4.6,88,0.00,CLR,,0.06,WeatherDisplay:10.37,2013-05-25 08:28:00,
2013-05-25 03:33:00,52.1,48.7,30.23,SE,130,11.5,11.5,88,0.00,CLR,,0.06,WeatherDisplay:10.37,2013-05-25 08:33:00,
2013-05-25 03:38:00,52.1,48.7,30.23,ESE,106,11.5,11.5,88,0.00,CLR,,0.06,WeatherDisplay:10.37,2013-05-25 08:38:00,
2013-05-25 03:43:00,52.1,48.7,30.23,ESE,123,0.0,0.0,88,0.00,CLR,,0.06,WeatherDisplay:10.37,2013-05-25 08:43:00,
2013-05-25 03:48:00,52.1,48.7,30.23,ESE,117,10.4,10.4,88,0.00,CLR,,0.06,WeatherDisplay:10.37,2013-05-25 08:48:00,
2013-05-25 03:53:00,52.0,48.3,30.23,ESE,109,4.6,4.6,87,0.00,CLR,,0.06,WeatherDisplay:10.37,2013-05-25 08:53:00,
2013-05-25 03:58:00,52.0,48.3,30.23,ESE,105,6.9,6.9,87,0.00,CLR,,0.06,WeatherDisplay:10.37,2013-05-25 08:58:00,
2013-05-25 04:03:00,52.1,48.3,30.23,ESE,121,9.2,9.2,87,0.00,CLR,,0.06,WeatherDisplay:10.37,2013-05-25 09:03:00,
2013-05-25 04:08:00,52.2,48.1,30.23,SE,128,5.8,5.8,86,0.00,CLR,,0.06,WeatherDisplay:10.37,2013-05-25 09:08:00,
2013-05-25 04:13:00,52.3,48.2,30.23,SSE,159,11.0,11.0,86,0.00,CLR,,0.06,WeatherDisplay:10.37,2013-05-25 09:13:00,
2013-05-25 04:18:00,52.3,47.9,30.23,East,86,6.9,6.9,85,0.00,CLR,,0.06,WeatherDisplay:10.37,2013-05-25 09:18:00,
2013-05-25 04:23:00,52.3,47.9,30.24,East,91,5.8,5.8,85,0.00,CLR,,0.06,WeatherDisplay:10.37,2013-05-25 09:23:00,
2013-05-25 04:28:00,52.3,47.9,30.24,East,82,10.4,10.4,85,0.00,CLR,,0.06,WeatherDisplay:10.37,2013-05-25 09:28:00,
2013-05-25 04:33:00,52.3,47.9,30.24,SE,126,6.9,6.9,85,0.00,CLR,,0.06,WeatherDisplay:10.37,2013-05-25 09:33:00,
2013-05-25 04:38:00,52.4,48.0,30.24,SE,141,4.6,4.6,85,0.00,CLR,,0.06,WeatherDisplay:10.37,2013-05-25 09:38:00,
2013-05-25 04:43:00,52.4,48.0,30.24,SE,134,9.2,9.2,85,0.00,CLR,,0.06,WeatherDisplay:10.37,2013-05-25 09:43:00,
2013-05-25 04:48:00,52.4,48.0,30.24,South,184,11.5,11.5,85,0.00,CLR,,0.06,WeatherDisplay:10.37,2013-05-25 09:48:00,
2013-05-25 04:53:00,52.4,48.0,30.24,ESE,115,6.9,6.9,85,0.00,CLR,,0.06,WeatherDisplay:10.37,2013-05-25 09:53:00,
2013-05-25 04:58:00,52.4,47.7,30.24,ESE,123,10.4,10.4,84,0.00,CLR,,0.06,WeatherDisplay:10.37,2013-05-25 09:58:00,
2013-05-25 05:03:00,52.5,47.8,30.24,SE,131,16.1,16.1,84,0.00,CLR,,0.06,WeatherDisplay:10.37,2013-05-25 10:03:00,
2013-05-25 05:08:00,52.5,47.8,30.24,East,101,12.7,12.7,84,0.00,CLR,,0.06,WeatherDisplay:10.37,2013-05-25 10:08:00,
2013-05-25 05:13:00,52.5,47.5,30.23,ESE,107,11.5,11.5,83,0.00,CLR,,0.06,WeatherDisplay:10.37,2013-05-25 10:13:00,
2013-05-25 05:18:00,52.4,47.7,30.23,SE,132,6.9,6.9,84,0.00,CLR,,0.06,WeatherDisplay:10.37,2013-05-25 10:18:00,
2013-05-25 05:23:00,52.4,47.7,30.23,ESE,111,4.6,4.6,84,0.00,CLR,,0.06,WeatherDisplay:10.37,2013-05-25 10:23:00,
2013-05-25 05:28:00,52.4,47.7,30.22,SE,128,9.2,9.2,84,0.00,CLR,,0.06,WeatherDisplay:10.37,2013-05-25 10:28:00,
2013-05-25 05:33:00,52.3,47.6,30.22,East,95,10.0,10.0,84,0.00,CLR,,0.06,WeatherDisplay:10.37,2013-05-25 10:33:00,
2013-05-25 05:38:00,52.3,47.6,30.22,ESE,103,5.8,5.8,84,0.00,CLR,,0.06,WeatherDisplay:10.37,2013-05-25 10:38:00,
2013-05-25 05:43:00,52.3,47.3,30.22,SSE,150,9.2,9.2,83,0.00,CLR,,0.06,WeatherDisplay:10.37,2013-05-25 10:43:00,
2013-05-25 05:48:00,52.4,47.4,30.22,SSE,147,5.8,5.8,83,0.00,CLR,,0.06,WeatherDisplay:10.37,2013-05-25 10:48:00,
2013-05-25 05:53:00,52.4,47.1,30.22,East,98,9.2,9.2,82,0.00,CLR,,0.06,WeatherDisplay:10.37,2013-05-25 10:53:00,
2013-05-25 05:58:00,52.5,47.2,30.22,East,90,11.5,11.5,82,0.00,CLR,,0.06,WeatherDisplay:10.37,2013-05-25 10:58:00,
2013-05-25 06:03:00,52.5,47.2,30.23,East,92,4.6,4.6,82,0.00,CLR,,0.06,WeatherDisplay:10.37,2013-05-25 11:03:00,
2013-05-25 06:08:00,52.6,47.3,30.23,South,178,9.2,9.2,82,0.00,CLR,,0.06,WeatherDisplay:10.37,2013-05-25 11:08:00,
2013-05-25 06:13:00,52.6,46.9,30.23,SE,130,6.9,6.9,81,0.00,CLR,,0.06,WeatherDisplay:10.37,2013-05-25 11:13:00,
2013-05-25 06:18:00,52.6,46.9,30.23,ESE,117,10.4,10.4,81,0.00,CLR,,0.06,WeatherDisplay:10.37,2013-05-25 11:18:00,
2013-05-25 06:23:00,52.7,47.0,30.23,East,97,11.5,11.5,81,0.00,CLR,,0.06,WeatherDisplay:10.37,2013-05-25 11:23:00,
2013-05-25 06:28:00,52.7,46.7,30.24,SE,145,9.2,9.2,80,0.00,CLR,,0.06,WeatherDisplay:10.37,2013-05-25 11:28:00,
2013-05-25 06:33:00,52.8,46.8,30.24,SE,127,11.5,11.5,80,0.00,CLR,,0.06,WeatherDisplay:10.37,2013-05-25 11:33:00,
2013-05-25 06:38:00,52.8,46.8,30.24,East,86,4.6,4.6,80,0.00,CLR,,0.06,WeatherDisplay:10.37,2013-05-25 11:38:00,
2013-05-25 06:43:00,52.9,46.9,30.24,SE,137,9.0,9.0,80,0.00,CLR,,0.06,WeatherDisplay:10.37,2013-05-25 11:43:00,
2013-05-25 06:48:00,52.9,46.6,30.25,ESE,118,10.4,10.4,79,0.00,CLR,,0.06,WeatherDisplay:10.37,2013-05-25 11:48:00,
2013-05-25 06:53:00,53.0,46.7,30.25,SE,134,6.9,6.9,79,0.00,CLR,,0.06,WeatherDisplay:10.37,2013-05-25 11:53:00,
2013-05-25 06:58:00,53.0,46.7,30.25,ESE,110,3.5,3.5,79,0.00,CLR,,0.06,WeatherDisplay:10.37,2013-05-25 11:58:00,
2013-05-25 07:03:00,53.1,46.8,30.24,SE,139,12.7,12.7,79,0.00,CLR,,0.06,WeatherDisplay:10.37,2013-05-25 12:03:00,
2013-05-25 07:08:00,53.1,46.8,30.24,ESE,108,4.6,4.6,79,0.00,CLR,,0.06,WeatherDisplay:10.37,2013-05-25 12:08:00,
2013-05-25 07:13:00,53.2,46.5,30.24,East,92,11.5,11.5,78,0.00,CLR,,0.06,WeatherDisplay:10.37,2013-05-25 12:13:00,
2013-05-25 07:18:00,53.3,46.6,30.23,ESE,117,2.0,2.8,78,0.00,CLR,,0.06,WeatherDisplay:10.37,2013-05-25 12:18:00,
2013-05-25 07:23:00,53.3,46.6,30.23,SSE,152,6.0,6.0,78,0.00,CLR,,0.06,WeatherDisplay:10.37,2013-05-25 12:23:00,
2013-05-25 07:28:00,53.4,46.7,30.23,ESE,114,9.2,9.2,78,0.00,CLR,,0.06,WeatherDisplay:10.37,2013-05-25 12:28:00,
2013-05-25 07:33:00,53.5,46.5,30.23,ESE,118,6.9,6.9,77,0.00,CLR,,0.06,WeatherDisplay:10.37,2013-05-25 12:33:00,
2013-05-25 07:38:00,53.5,46.8,30.23,ESE,102,11.5,11.5,78,0.00,CLR,,0.06,WeatherDisplay:10.37,2013-05-25 12:38:00,
2013-05-25 07:43:00,53.6,46.6,30.23,SSE,164,11.5,11.5,77,0.00,CLR,,0.06,WeatherDisplay:10.37,2013-05-25 12:43:00,
2013-05-25 07:48:00,53.6,46.6,30.23,SSE,161,19.6,19.6,77,0.00,CLR,,0.06,WeatherDisplay:10.37,2013-05-25 12:48:00,
2013-05-25 07:53:00,53.7,46.3,30.23,ESE,121,11.5,11.5,76,0.00,CLR,,0.06,WeatherDisplay:10.37,2013-05-25 12:53:00,
2013-05-25 07:58:00,53.8,46.4,30.23,East,92,16.1,16.1,76,0.00,CLR,,0.06,WeatherDisplay:10.37,2013-05-25 12:58:00,
2013-05-25 08:03:00,53.9,46.5,30.22,ESE,115,13.0,13.0,76,0.00,CLR,,0.06,WeatherDisplay:10.37,2013-05-25 13:03:00,
2013-05-25 08:08:00,54.0,46.6,30.22,ESE,123,10.4,10.4,76,0.00,CLR,,0.06,WeatherDisplay:10.37,2013-05-25 13:08:00,
2013-05-25 08:13:00,54.2,46.4,30.22,SE,126,16.1,16.1,75,0.00,CLR,,0.06,WeatherDisplay:10.37,2013-05-25 13:13:00,
2013-05-25 08:18:00,54.4,46.3,30.23,SE,142,16.1,16.1,74,0.00,CLR,,0.06,WeatherDisplay:10.37,2013-05-25 13:18:00,
2013-05-25 08:23:00,54.6,46.5,30.23,ESE,114,16.0,16.0,74,0.00,CLR,,0.06,WeatherDisplay:10.37,2013-05-25 13:23:00,
2013-05-25 08:28:00,54.7,46.2,30.23,SSE,154,15.0,15.0,73,0.00,CLR,,0.06,WeatherDisplay:10.37,2013-05-25 13:28:00,
2013-05-25 08:33:00,54.8,46.3,30.24,SSE,160,11.5,11.5,73,0.00,CLR,,0.06,WeatherDisplay:10.37,2013-05-25 13:33:00,
2013-05-25 08:38:00,55.0,46.1,30.24,SSE,164,12.7,12.7,72,0.00,CLR,,0.06,WeatherDisplay:10.37,2013-05-25 13:38:00,
2013-05-25 08:43:00,55.0,46.1,30.24,SSE,149,9.0,9.0,72,0.00,CLR,,0.06,WeatherDisplay:10.37,2013-05-25 13:43:00,
2013-05-25 08:48:00,55.1,45.9,30.24,SSE,167,18.4,18.4,71,0.00,CLR,,0.06,WeatherDisplay:10.37,2013-05-25 13:48:00,
2013-05-25 08:53:00,55.1,46.2,30.24,SSE,159,11.5,11.5,72,0.00,CLR,,0.06,WeatherDisplay:10.37,2013-05-25 13:53:00,
2013-05-25 08:58:00,55.1,45.9,30.24,SSE,160,13.8,13.8,71,0.00,CLR,,0.06,WeatherDisplay:10.37,2013-05-25 13:58:00,
2013-05-25 09:04:00,55.2,46.0,30.24,SE,146,11.5,11.5,71,0.00,CLR,,0.06,WeatherDisplay:10.37,2013-05-25 14:04:00,
2013-05-25 09:09:00,55.3,46.1,30.24,SSE,149,11.5,11.5,71,0.00,CLR,,0.06,WeatherDisplay:10.37,2013-05-25 14:09:00,
2013-05-25 09:14:00,55.3,46.1,30.24,SE,130,19.6,19.6,71,0.00,CLR,,0.06,WeatherDisplay:10.37,2013-05-25 14:14:00,
2013-05-25 09:19:00,55.4,46.2,30.24,SE,126,6.9,6.9,71,0.00,CLR,,0.06,WeatherDisplay:10.37,2013-05-25 14:19:00,
2013-05-25 09:24:00,55.4,46.2,30.24,SSE,156,9.2,9.3,71,0.00,CLR,,0.06,WeatherDisplay:10.37,2013-05-25 14:24:00,
2013-05-25 09:29:00,55.5,45.9,30.24,SE,134,13.0,13.0,70,0.00,CLR,,0.06,WeatherDisplay:10.37,2013-05-25 14:29:00,
2013-05-25 09:34:00,55.7,46.1,30.24,SSE,157,13.8,13.8,70,0.00,CLR,,0.06,WeatherDisplay:10.37,2013-05-25 14:34:00,
2013-05-25 09:39:00,55.9,46.3,30.24,ESE,123,15.0,15.0,70,0.00,CLR,,0.06,WeatherDisplay:10.37,2013-05-25 14:39:00,
2013-05-25 09:44:00,56.0,46.0,30.24,ESE,120,15.0,15.0,69,0.00,CLR,,0.06,WeatherDisplay:10.37,2013-05-25 14:44:00,
2013-05-25 09:49:00,56.0,46.4,30.25,SSE,163,17.3,17.3,70,0.00,CLR,,0.06,WeatherDisplay:10.37,2013-05-25 14:49:00,
2013-05-25 09:54:00,56.1,46.1,30.24,South,182,16.1,16.1,69,0.00,CLR,,0.06,WeatherDisplay:10.37,2013-05-25 14:54:00,
2013-05-25 09:59:00,56.2,46.2,30.24,ESE,111,15.0,15.0,69,0.00,CLR,,0.06,WeatherDisplay:10.37,2013-05-25 14:59:00,
2013-05-25 10:04:00,56.3,46.3,30.24,East,94,11.5,11.5,69,0.00,CLR,,0.06,WeatherDisplay:10.37,2013-05-25 15:04:00,
2013-05-25 10:09:00,56.5,46.1,30.24,SSE,157,23.0,23.0,68,0.00,CLR,,0.06,WeatherDisplay:10.37,2013-05-25 15:09:00,
2013-05-25 10:14:00,56.7,46.6,30.24,SE,126,3.5,5.2,69,0.00,CLR,,0.06,WeatherDisplay:10.37,2013-05-25 15:14:00,
2013-05-25 10:19:00,56.9,46.4,30.24,SW,221,11.5,11.5,68,0.00,CLR,,0.06,WeatherDisplay:10.37,2013-05-25 15:19:00,
2013-05-25 10:24:00,57.1,46.2,30.23,ESE,120,13.8,13.8,67,0.00,CLR,,0.06,WeatherDisplay:10.37,2013-05-25 15:24:00,
2013-05-25 10:29:00,57.3,46.4,30.23,South,169,11.5,11.5,67,0.00,CLR,,0.06,WeatherDisplay:10.37,2013-05-25 15:29:00,
2013-05-25 10:34:00,57.3,46.4,30.23,ESE,107,10.4,10.4,67,0.00,CLR,,0.06,WeatherDisplay:10.37,2013-05-25 15:34:00,
2013-05-25 10:39:00,57.4,46.5,30.23,SE,137,11.5,11.5,67,0.00,CLR,,0.06,WeatherDisplay:10.37,2013-05-25 15:39:00,
2013-05-25 10:44:00,57.9,47.0,30.23,SSE,150,11.5,11.5,67,0.00,CLR,,0.06,WeatherDisplay:10.37,2013-05-25 15:44:00,
2013-05-25 10:49:00,58.1,46.4,30.24,SE,128,17.3,17.3,65,0.00,CLR,,0.06,WeatherDisplay:10.37,2013-05-25 15:49:00,
2013-05-25 10:54:00,58.4,46.3,30.24,SE,126,18.4,18.4,64,0.00,CLR,,0.06,WeatherDisplay:10.37,2013-05-25 15:54:00,
2013-05-25 10:59:00,58.4,46.3,30.24,SSW,195,11.5,11.5,64,0.00,CLR,,0.06,WeatherDisplay:10.37,2013-05-25 15:59:00,
2013-05-25 11:04:00,58.5,46.8,30.24,SE,141,11.5,11.5,65,0.00,CLR,,0.06,WeatherDisplay:10.37,2013-05-25 16:04:00,
2013-05-25 11:09:00,58.6,46.5,30.24,SE,133,5.8,5.8,64,0.00,CLR,,0.06,WeatherDisplay:10.37,2013-05-25 16:09:00,
2013-05-25 11:14:00,58.9,47.2,30.24,ESE,109,5.8,5.8,65,0.00,CLR,,0.06,WeatherDisplay:10.37,2013-05-25 16:14:00,
2013-05-25 11:19:00,58.7,46.5,30.24,SE,125,15.0,15.0,64,0.00,CLR,,0.06,WeatherDisplay:10.37,2013-05-25 16:19:00,
2013-05-25 11:24:00,58.5,46.4,30.24,SE,145,12.0,12.0,64,0.00,CLR,,0.06,WeatherDisplay:10.37,2013-05-25 16:24:00,
2013-05-25 11:29:00,58.6,46.9,30.25,SE,142,11.5,11.5,65,0.00,CLR,,0.06,WeatherDisplay:10.37,2013-05-25 16:29:00,
2013-05-25 11:34:00,58.4,46.3,30.25,SE,133,12.7,12.7,64,0.00,CLR,,0.06,WeatherDisplay:10.37,2013-05-25 16:34:00,
2013-05-25 11:39:00,58.2,46.1,30.25,ESE,122,11.5,11.5,64,0.00,CLR,,0.06,WeatherDisplay:10.37,2013-05-25 16:39:00,
2013-05-25 11:44:00,58.2,46.1,30.26,SE,139,12.7,12.7,64,0.00,CLR,,0.06,WeatherDisplay:10.37,2013-05-25 16:44:00,
2013-05-25 11:49:00,58.2,46.5,30.26,South,169,11.5,11.5,65,0.00,CLR,,0.06,WeatherDisplay:10.37,2013-05-25 16:49:00,
2013-05-25 11:54:00,58.2,46.1,30.26,East,99,15.0,15.0,64,0.00,CLR,,0.06,WeatherDisplay:10.37,2013-05-25 16:54:00,
2013-05-25 11:59:00,58.0,45.9,30.26,SSE,155,12.7,12.7,64,0.00,CLR,,0.06,WeatherDisplay:10.37,2013-05-25 16:59:00,
2013-05-25 12:04:00,57.9,46.2,30.26,SE,142,11.5,11.5,65,0.00,CLR,,0.06,WeatherDisplay:10.37,2013-05-25 17:04:00,
2013-05-25 12:09:00,57.7,46.0,30.26,SE,130,9.2,9.2,65,0.00,CLR,,0.06,WeatherDisplay:10.37,2013-05-25 17:09:00,
2013-05-25 12:14:00,57.6,45.9,30.26,ESE,123,17.3,17.3,65,0.00,CLR,,0.06,WeatherDisplay:10.37,2013-05-25 17:14:00,
2013-05-25 12:19:00,57.5,45.8,30.26,South,180,6.9,6.9,65,0.00,CLR,,0.06,WeatherDisplay:10.37,2013-05-25 17:19:00,
2013-05-25 12:24:00,57.6,45.5,30.26,South,182,11.5,11.5,64,0.00,CLR,,0.06,WeatherDisplay:10.37,2013-05-25 17:24:00,
2013-05-25 12:29:00,58.0,45.9,30.26,South,173,11.5,11.5,64,0.00,CLR,,0.06,WeatherDisplay:10.37,2013-05-25 17:29:00,
2013-05-25 12:34:00,57.9,45.8,30.27,South,186,10.4,10.4,64,0.00,CLR,,0.06,WeatherDisplay:10.37,2013-05-25 17:34:00,
2013-05-25 12:39:00,57.8,46.1,30.27,ESE,119,15.0,15.0,65,0.00,CLR,,0.06,WeatherDisplay:10.37,2013-05-25 17:39:00,
2013-05-25 12:44:00,57.5,46.2,30.26,SSW,199,9.2,9.2,66,0.00,CLR,,0.06,WeatherDisplay:10.37,2013-05-25 17:44:00,
2013-05-25 12:49:00,57.5,46.2,30.27,ESE,118,10.4,10.4,66,0.00,CLR,,0.06,WeatherDisplay:10.37,2013-05-25 17:49:00,
2013-05-25 12:54:00,57.7,46.4,30.26,SSW,205,19.6,19.6,66,0.00,CLR,,0.06,WeatherDisplay:10.37,2013-05-25 17:54:00,
2013-05-25 12:59:00,57.4,46.5,30.26,SE,137,12.7,12.7,67,0.00,CLR,,0.06,WeatherDisplay:10.37,2013-05-25 17:59:00,
2013-05-25 13:04:00,57.4,46.5,30.27,SSW,195,16.1,16.1,67,0.00,CLR,,0.06,WeatherDisplay:10.37,2013-05-25 18:04:00,
2013-05-25 13:09:00,57.2,46.7,30.27,SE,142,19.6,19.6,68,0.00,CLR,,0.06,WeatherDisplay:10.37,2013-05-25 18:09:00,
2013-05-25 13:14:00,56.9,46.4,30.27,SSE,165,21.9,21.9,68,0.00,CLR,,0.06,WeatherDisplay:10.37,2013-05-25 18:14:00,
2013-05-25 13:19:00,56.5,46.4,30.27,SSE,156,15.0,15.0,69,0.00,CLR,,0.06,WeatherDisplay:10.37,2013-05-25 18:19:00,
2013-05-25 13:24:00,56.3,46.6,30.27,SSE,157,16.1,16.1,70,0.00,CLR,,0.06,WeatherDisplay:10.37,2013-05-25 18:24:00,
2013-05-25 13:29:00,56.0,46.7,30.27,ESE,123,15.0,15.0,71,0.00,CLR,,0.06,WeatherDisplay:10.37,2013-05-25 18:29:00,
2013-05-25 13:34:00,56.2,47.3,30.26,SSE,168,9.2,9.2,72,0.00,CLR,,0.06,WeatherDisplay:10.37,2013-05-25 18:34:00,
2013-05-25 13:39:00,56.1,47.2,30.26,SE,145,11.5,11.5,72,0.00,CLR,,0.06,WeatherDisplay:10.37,2013-05-25 18:39:00,
2013-05-25 13:44:00,56.3,47.4,30.26,SE,138,15.0,15.0,72,0.00,CLR,,0.06,WeatherDisplay:10.37,2013-05-25 18:44:00,
2013-05-25 13:49:00,56.4,47.5,30.26,ESE,119,12.7,12.7,72,0.00,CLR,,0.06,WeatherDisplay:10.37,2013-05-25 18:49:00,
2013-05-25 13:54:00,56.9,47.6,30.25,East,86,13.8,13.8,71,0.00,CLR,,0.06,WeatherDisplay:10.37,2013-05-25 18:54:00,
2013-05-25 13:59:00,57.3,48.0,30.25,West,261,5.8,5.8,71,0.00,CLR,,0.06,WeatherDisplay:10.37,2013-05-25 18:59:00,
2013-05-25 14:04:00,57.0,47.7,30.25,SE,143,15.0,15.0,71,0.00,CLR,,0.06,WeatherDisplay:10.37,2013-05-25 19:04:00,
2013-05-25 14:09:00,57.1,47.8,30.25,South,187,13.8,13.8,71,0.00,CLR,,0.06,WeatherDisplay:10.37,2013-05-25 19:09:00,
2013-05-25 14:14:00,57.0,47.7,30.25,SE,132,13.8,13.8,71,0.00,CLR,,0.06,WeatherDisplay:10.37,2013-05-25 19:14:00,
2013-05-25 14:19:00,56.6,47.3,30.26,SE,144,18.4,18.4,71,0.00,CLR,,0.06,WeatherDisplay:10.37,2013-05-25 19:19:00,
2013-05-25 14:24:00,56.6,47.3,30.26,SSE,153,12.7,12.7,71,0.00,CLR,,0.06,WeatherDisplay:10.37,2013-05-25 19:24:00,
2013-05-25 14:29:00,56.6,47.3,30.25,SE,132,18.4,18.4,71,0.00,CLR,,0.06,WeatherDisplay:10.37,2013-05-25 19:29:00,
2013-05-25 14:34:00,56.4,47.1,30.25,SSE,150,11.5,11.5,71,0.00,CLR,,0.06,WeatherDisplay:10.37,2013-05-25 19:34:00,
2013-05-25 14:39:00,56.6,47.3,30.26,ESE,119,16.1,16.1,71,0.00,CLR,,0.06,WeatherDisplay:10.37,2013-05-25 19:39:00,
2013-05-25 14:44:00,56.5,47.2,30.26,ESE,111,10.4,10.4,71,0.00,CLR,,0.06,WeatherDisplay:10.37,2013-05-25 19:44:00,
2013-05-25 14:49:00,56.4,47.1,30.26,ESE,121,12.7,12.7,71,0.00,CLR,,0.06,WeatherDisplay:10.37,2013-05-25 19:49:00,
2013-05-25 14:54:00,56.1,47.2,30.26,SE,126,18.4,18.4,72,0.00,CLR,,0.06,WeatherDisplay:10.37,2013-05-25 19:54:00,
2013-05-25 14:59:00,56.1,47.2,30.26,South,190,11.5,11.5,72,0.00,CLR,,0.06,WeatherDisplay:10.37,2013-05-25 19:59:00,
2013-05-25 15:05:00,56.1,47.2,30.25,SSE,164,16.1,16.1,72,0.00,CLR,,0.06,WeatherDisplay:10.37,2013-05-25 20:05:00,
2013-05-25 15:09:00,56.3,47.8,30.26,ESE,106,11.5,11.5,73,0.00,CLR,,0.06,WeatherDisplay:10.37,2013-05-25 20:09:00,
2013-05-25 15:15:00,56.4,47.9,30.26,South,170,9.2,9.2,73,0.00,CLR,,0.06,WeatherDisplay:10.37,2013-05-25 20:15:00,
2013-05-25 15:20:00,56.1,47.6,30.26,SE,140,13.8,13.8,73,0.00,CLR,,0.06,WeatherDisplay:10.37,2013-05-25 20:20:00,
2013-05-25 15:25:00,56.0,47.8,30.26,ESE,107,6.9,7.3,74,0.00,CLR,,0.06,WeatherDisplay:10.37,2013-05-25 20:25:00,
2013-05-25 15:30:00,55.8,47.6,30.26,SSE,156,17.3,17.3,74,0.00,CLR,,0.06,WeatherDisplay:10.37,2013-05-25 20:30:00,
2013-05-25 15:35:00,55.9,47.7,30.26,ESE,102,11.5,11.5,74,0.00,CLR,,0.06,WeatherDisplay:10.37,2013-05-25 20:35:00,
2013-05-25 15:40:00,55.9,47.4,30.26,SE,133,10.4,10.4,73,0.00,CLR,,0.06,WeatherDisplay:10.37,2013-05-25 20:40:00,
2013-05-25 15:45:00,55.9,47.0,30.26,SE,126,21.9,21.9,72,0.00,CLR,,0.06,WeatherDisplay:10.37,2013-05-25 20:45:00,
2013-05-25 15:50:00,55.6,47.1,30.26,SSE,153,17.3,17.3,73,0.00,CLR,,0.06,WeatherDisplay:10.37,2013-05-25 20:50:00,
2013-05-25 15:55:00,55.7,47.5,30.25,ESE,102,10.4,10.4,74,0.00,CLR,,0.06,WeatherDisplay:10.37,2013-05-25 20:55:00,
2013-05-25 16:00:00,55.8,47.6,30.25,SE,134,16.1,16.1,74,0.00,CLR,,0.06,WeatherDisplay:10.37,2013-05-25 21:00:00,
2013-05-25 16:05:00,55.8,47.3,30.25,SSE,148,12.7,12.7,73,0.00,CLR,,0.06,WeatherDisplay:10.37,2013-05-25 21:05:00,
2013-05-25 16:10:00,55.7,47.2,30.25,ESE,112,15.0,15.0,73,0.00,CLR,,0.06,WeatherDisplay:10.37,2013-05-25 21:10:00,
2013-05-25 16:15:00,55.7,47.2,30.25,SE,136,15.0,15.0,73,0.00,CLR,,0.06,WeatherDisplay:10.37,2013-05-25 21:15:00,
2013-05-25 16:20:00,55.6,47.1,30.25,SE,125,12.7,12.7,73,0.00,CLR,,0.06,WeatherDisplay:10.37,2013-05-25 21:20:00,
2013-05-25 16:25:00,55.5,47.3,30.25,SE,136,15.0,15.0,74,0.00,CLR,,0.06,WeatherDisplay:10.37,2013-05-25 21:25:00,
2013-05-25 16:30:00,55.5,47.3,30.25,SE,124,18.4,18.4,74,0.00,CLR,,0.06,WeatherDisplay:10.37,2013-05-25 21:30:00,
2013-05-25 16:35:00,55.6,47.4,30.25,ESE,111,10.4,10.4,74,0.00,CLR,,0.06,WeatherDisplay:10.37,2013-05-25 21:35:00,
2013-05-25 16:40:00,55.6,47.1,30.25,SE,136,18.4,18.4,73,0.00,CLR,,0.06,WeatherDisplay:10.37,2013-05-25 21:40:00,
2013-05-25 16:45:00,55.6,47.1,30.25,East,96,11.5,11.5,73,0.00,CLR,,0.06,WeatherDisplay:10.37,2013-05-25 21:45:00,
2013-05-25 16:50:00,55.7,47.5,30.25,East,98,11.5,11.5,74,0.00,CLR,,0.06,WeatherDisplay:10.37,2013-05-25 21:50:00,
2013-05-25 16:55:00,55.5,47.3,30.25,ESE,106,10.4,10.4,74,0.00,CLR,,0.06,WeatherDisplay:10.37,2013-05-25 21:55:00,
2013-05-25 17:00:00,55.4,47.2,30.25,ESE,107,12.7,12.7,74,0.00,CLR,,0.06,WeatherDisplay:10.37,2013-05-25 22:00:00,
2013-05-25 17:05:00,55.4,47.2,30.25,SE,132,5.8,5.8,74,0.00,CLR,,0.06,WeatherDisplay:10.37,2013-05-25 22:05:00,
2013-05-25 17:10:00,55.2,47.4,30.25,South,178,9.2,9.2,75,0.00,CLR,,0.06,WeatherDisplay:10.37,2013-05-25 22:10:00,
2013-05-25 17:15:00,54.9,47.1,30.25,SE,126,11.5,11.5,75,0.00,CLR,,0.06,WeatherDisplay:10.37,2013-05-25 22:15:00,
2013-05-25 17:20:00,54.9,47.5,30.25,East,99,11.5,11.5,76,0.00,CLR,,0.06,WeatherDisplay:10.37,2013-05-25 22:20:00,
2013-05-25 17:25:00,54.8,47.4,30.25,ESE,119,5.8,5.8,76,0.00,CLR,,0.06,WeatherDisplay:10.37,2013-05-25 22:25:00,
2013-05-25 17:30:00,54.7,47.6,30.25,SE,126,11.5,11.5,77,0.00,CLR,,0.06,WeatherDisplay:10.37,2013-05-25 22:30:00,
2013-05-25 17:35:00,54.7,47.6,30.25,SE,135,6.9,6.9,77,0.00,CLR,,0.06,WeatherDisplay:10.37,2013-05-25 22:35:00,
2013-05-25 17:40:00,54.5,47.4,30.25,SSE,157,11.5,11.5,77,0.00,CLR,,0.06,WeatherDisplay:10.37,2013-05-25 22:40:00,
2013-05-25 17:45:00,54.4,47.3,30.25,SE,133,11.0,11.0,77,0.00,CLR,,0.06,WeatherDisplay:10.37,2013-05-25 22:45:00,
2013-05-25 17:50:00,54.3,47.2,30.25,SE,138,15.0,15.0,77,0.00,CLR,,0.06,WeatherDisplay:10.37,2013-05-25 22:50:00,
2013-05-25 17:55:00,54.3,47.2,30.25,East,101,0.0,0.0,77,0.00,CLR,,0.06,WeatherDisplay:10.37,2013-05-25 22:55:00,
2013-05-25 18:00:00,54.2,46.4,30.25,SSE,167,26.5,26.5,75,0.00,CLR,,0.06,WeatherDisplay:10.37,2013-05-25 23:00:00,
2013-05-25 18:05:00,54.2,46.4,30.25,East,97,11.5,11.5,75,0.00,CLR,,0.06,WeatherDisplay:10.37,2013-05-25 23:05:00,
2013-05-25 18:10:00,54.2,46.4,30.24,SSE,148,15.0,15.0,75,0.00,CLR,,0.06,WeatherDisplay:10.37,2013-05-25 23:10:00,
2013-05-25 18:15:00,54.1,46.3,30.24,East,86,11.5,11.5,75,0.00,CLR,,0.06,WeatherDisplay:10.37,2013-05-25 23:15:00,
2013-05-25 18:20:00,54.2,46.8,30.24,SE,129,10.4,10.4,76,0.00,CLR,,0.06,WeatherDisplay:10.37,2013-05-25 23:20:00,
2013-05-25 18:25:00,54.2,46.4,30.24,ESE,114,5.8,5.8,75,0.00,CLR,,0.06,WeatherDisplay:10.37,2013-05-25 23:25:00,
2013-05-25 18:30:00,54.3,46.5,30.24,SE,126,11.5,11.5,75,0.00,CLR,,0.06,WeatherDisplay:10.37,2013-05-25 23:30:00,
2013-05-25 18:35:00,54.4,46.3,30.24,East,99,17.0,17.0,74,0.00,CLR,,0.06,WeatherDisplay:10.37,2013-05-25 23:35:00,
2013-05-25 18:40:00,54.3,45.8,30.24,SE,138,11.5,11.5,73,0.00,CLR,,0.06,WeatherDisplay:10.37,2013-05-25 23:40:00,
2013-05-25 18:45:00,54.3,45.8,30.24,East,80,9.2,9.2,73,0.00,CLR,,0.06,WeatherDisplay:10.37,2013-05-25 23:45:00,
2013-05-25 18:50:00,54.3,45.8,30.24,East,90,13.8,13.8,73,0.00,CLR,,0.06,WeatherDisplay:10.37,2013-05-25 23:50:00,
2013-05-25 18:55:00,54.3,45.8,30.24,East,94,5.8,5.8,73,0.00,CLR,,0.06,WeatherDisplay:10.37,2013-05-25 23:55:00,
2013-05-25 19:00:00,54.3,45.5,30.24,ESE,117,17.3,17.3,72,0.00,CLR,,0.06,WeatherDisplay:10.37,2013-05-26 00:00:00,
2013-05-25 19:05:00,54.2,45.4,30.24,SE,144,6.9,6.9,72,0.00,CLR,,0.06,WeatherDisplay:10.37,2013-05-26 00:05:00,
2013-05-25 19:10:00,54.3,45.5,30.24,ESE,107,13.0,13.0,72,0.00,CLR,,0.06,WeatherDisplay:10.37,2013-05-26 00:10:00,
2013-05-25 19:15:00,54.3,45.5,30.24,SE,128,11.5,11.5,72,0.00,CLR,,0.06,WeatherDisplay:10.37,2013-05-26 00:15:00,
2013-05-25 19:20:00,54.3,45.5,30.24,ESE,119,0.0,0.8,72,0.00,CLR,,0.06,WeatherDisplay:10.37,2013-05-26 00:20:00,
2013-05-25 19:25:00,54.3,45.5,30.24,SE,135,3.5,3.5,72,0.00,CLR,,0.06,WeatherDisplay:10.37,2013-05-26 00:25:00,
2013-05-25 19:30:00,54.3,45.8,30.24,ESE,109,5.8,0.0,73,0.00,CLR,,0.06,WeatherDisplay:10.37,2013-05-26 00:30:00,
2013-05-25 19:35:00,54.3,45.5,30.24,SE,128,12.7,12.7,72,0.00,CLR,,0.06,WeatherDisplay:10.37,2013-05-26 00:35:00,
2013-05-25 19:40:00,54.3,45.5,30.24,ESE,102,0.0,0.1,72,0.00,CLR,,0.06,WeatherDisplay:10.37,2013-05-26 00:40:00,
2013-05-25 19:45:00,54.3,45.5,30.24,ESE,122,11.5,11.5,72,0.00,CLR,,0.06,WeatherDisplay:10.37,2013-05-26 00:45:00,
2013-05-25 19:50:00,54.2,45.7,30.24,East,92,11.5,11.5,73,0.00,CLR,,0.06,WeatherDisplay:10.37,2013-05-26 00:50:00,
2013-05-25 19:55:00,54.2,45.7,30.25,ESE,114,3.5,3.5,73,0.00,CLR,,0.06,WeatherDisplay:10.37,2013-05-26 00:55:00,
2013-05-25 20:00:00,54.2,45.7,30.25,SE,133,10.0,10.0,73,0.00,CLR,,0.06,WeatherDisplay:10.37,2013-05-26 01:00:00,
2013-05-25 20:05:00,54.2,45.7,30.25,East,98,10.4,10.4,73,0.00,CLR,,0.06,WeatherDisplay:10.37,2013-05-26 01:05:00,
2013-05-25 20:10:00,54.1,45.6,30.25,East,96,6.0,6.0,73,0.00,CLR,,0.06,WeatherDisplay:10.37,2013-05-26 01:10:00,
2013-05-25 20:15:00,54.1,45.6,30.24,East,94,5.8,0.0,73,0.00,CLR,,0.06,WeatherDisplay:10.37,2013-05-26 01:15:00,
2013-05-25 20:20:00,54.1,46.0,30.24,SE,141,3.0,3.0,74,0.00,CLR,,0.06,WeatherDisplay:10.37,2013-05-26 01:20:00,
2013-05-25 20:25:00,54.1,45.6,30.24,ESE,109,5.8,5.8,73,0.00,CLR,,0.06,WeatherDisplay:10.37,2013-05-26 01:25:00,
2013-05-25 20:30:00,54.1,46.0,30.24,ESE,119,6.9,6.9,74,0.00,CLR,,0.06,WeatherDisplay:10.37,2013-05-26 01:30:00,
2013-05-25 20:35:00,54.1,46.0,30.24,SE,146,9.2,9.2,74,0.00,CLR,,0.06,WeatherDisplay:10.37,2013-05-26 01:35:00,
2013-05-25 20:40:00,54.1,46.0,30.24,ESE,121,0.0,4.2,74,0.00,CLR,,0.06,WeatherDisplay:10.37,2013-05-26 01:40:00,
2013-05-25 20:45:00,54.1,46.0,30.24,ESE,113,11.5,11.5,74,0.00,CLR,,0.06,WeatherDisplay:10.37,2013-05-26 01:45:00,
2013-05-25 20:50:00,54.1,46.0,30.24,ESE,111,6.9,6.9,74,0.00,CLR,,0.06,WeatherDisplay:10.37,2013-05-26 01:50:00,
2013-05-25 20:55:00,54.1,46.0,30.24,SE,132,6.0,6.0,74,0.00,CLR,,0.06,WeatherDisplay:10.37,2013-05-26 01:55:00,
2013-05-25 21:00:00,54.2,46.1,30.24,SE,141,2.3,2.3,74,0.00,CLR,,0.06,WeatherDisplay:10.37,2013-05-26 02:00:00,
2013-05-25 21:05:00,54.2,46.1,30.24,SE,146,1.2,0.0,74,0.00,CLR,,0.06,WeatherDisplay:10.37,2013-05-26 02:05:00,
2013-05-25 21:10:00,54.2,46.1,30.24,ESE,114,0.0,2.7,74,0.00,CLR,,0.06,WeatherDisplay:10.37,2013-05-26 02:10:00,
2013-05-25 21:16:00,54.2,45.7,30.24,SE,134,10.4,10.4,73,0.00,CLR,,0.06,WeatherDisplay:10.37,2013-05-26 02:16:00,
2013-05-25 21:21:00,54.2,45.7,30.24,SE,138,5.8,5.8,73,0.00,CLR,,0.06,WeatherDisplay:10.37,2013-05-26 02:21:00,
2013-05-25 21:26:00,54.3,45.8,30.24,SE,131,6.9,6.9,73,0.00,CLR,,0.06,WeatherDisplay:10.37,2013-05-26 02:26:00,
2013-05-25 21:31:00,54.3,45.8,30.25,ESE,122,11.5,11.5,73,0.00,CLR,,0.06,WeatherDisplay:10.37,2013-05-26 02:31:00,
2013-05-25 21:36:00,54.3,45.8,30.25,SE,131,0.0,0.8,73,0.00,CLR,,0.06,WeatherDisplay:10.37,2013-05-26 02:36:00,
2013-05-25 21:41:00,54.4,45.9,30.25,SE,126,1.2,0.0,73,0.00,CLR,,0.06,WeatherDisplay:10.37,2013-05-26 02:41:00,
2013-05-25 21:46:00,54.4,45.9,30.25,SSE,165,4.6,4.6,73,0.00,CLR,,0.06,WeatherDisplay:10.37,2013-05-26 02:46:00,
2013-05-25 21:51:00,54.4,45.9,30.25,SSE,161,10.4,10.4,73,0.00,CLR,,0.06,WeatherDisplay:10.37,2013-05-26 02:51:00,
2013-05-25 21:56:00,54.4,45.9,30.25,SE,138,6.9,6.9,73,0.00,CLR,,0.06,WeatherDisplay:10.37,2013-05-26 02:56:00,
2013-05-25 22:01:00,54.5,46.0,30.25,SE,134,5.8,0.0,73,0.00,CLR,,0.06,WeatherDisplay:10.37,2013-05-26 03:01:00,
2013-05-25 22:06:00,54.5,45.7,30.25,ESE,113,6.9,6.9,72,0.00,CLR,,0.06,WeatherDisplay:10.37,2013-05-26 03:06:00,
2013-05-25 22:11:00,54.5,45.7,30.25,SE,126,9.2,9.2,72,0.00,CLR,,0.06,WeatherDisplay:10.37,2013-05-26 03:11:00,
2013-05-25 22:16:00,54.6,45.8,30.25,ESE,112,0.0,0.0,72,0.00,CLR,,0.06,WeatherDisplay:10.37,2013-05-26 03:16:00,
2013-05-25 22:21:00,54.6,45.8,30.25,ESE,110,5.8,5.8,72,0.00,CLR,,0.06,WeatherDisplay:10.37,2013-05-26 03:21:00,
2013-05-25 22:26:00,54.6,45.8,30.25,ESE,111,5.8,5.8,72,0.00,CLR,,0.06,WeatherDisplay:10.37,2013-05-26 03:26:00,
2013-05-25 22:31:00,54.6,45.8,30.25,SE,136,11.5,11.5,72,0.00,CLR,,0.06,WeatherDisplay:10.37,2013-05-26 03:31:00,
2013-05-25 22:36:00,54.6,45.8,30.25,SE,146,13.8,13.8,72,0.00,CLR,,0.06,WeatherDisplay:10.37,2013-05-26 03:36:00,
2013-05-25 22:41:00,54.6,45.4,30.25,ESE,114,18.4,18.4,71,0.00,CLR,,0.06,WeatherDisplay:10.37,2013-05-26 03:41:00,
2013-05-25 22:46:00,54.6,45.0,30.26,East,92,11.5,11.5,70,0.00,CLR,,0.06,WeatherDisplay:10.37,2013-05-26 03:46:00,
2013-05-25 22:51:00,54.6,44.6,30.26,SSE,159,6.9,6.9,69,0.00,CLR,,0.06,WeatherDisplay:10.37,2013-05-26 03:51:00,
2013-05-25 22:56:00,54.6,44.2,30.26,SE,144,13.8,13.8,68,0.00,CLR,,0.06,WeatherDisplay:10.37,2013-05-26 03:56:00,
2013-05-25 23:01:00,54.6,43.5,30.26,South,174,11.5,11.5,66,0.00,CLR,,0.06,WeatherDisplay:10.37,2013-05-26 04:01:00,
2013-05-25 23:06:00,54.6,43.1,30.26,SE,130,11.5,11.5,65,0.00,CLR,,0.06,WeatherDisplay:10.37,2013-05-26 04:06:00,
2013-05-25 23:11:00,54.6,42.7,30.26,SSE,148,15.0,15.0,64,0.00,CLR,,0.06,WeatherDisplay:10.37,2013-05-26 04:11:00,
2013-05-25 23:16:00,54.5,43.0,30.26,SE,129,10.4,10.4,65,0.00,CLR,,0.06,WeatherDisplay:10.37,2013-05-26 04:16:00,
2013-05-25 23:21:00,54.5,43.0,30.26,ESE,103,15.0,15.0,65,0.00,CLR,,0.06,WeatherDisplay:10.37,2013-05-26 04:21:00,
2013-05-25 23:26:00,54.4,42.9,30.25,ESE,119,11.5,11.5,65,0.00,CLR,,0.06,WeatherDisplay:10.37,2013-05-26 04:26:00,
2013-05-25 23:31:00,54.3,42.8,30.25,ESE,120,9.2,9.2,65,0.00,CLR,,0.06,WeatherDisplay:10.37,2013-05-26 04:31:00,
2013-05-25 23:36:00,54.2,42.7,30.24,SSE,160,3.5,4.6,65,0.00,CLR,,0.06,WeatherDisplay:10.37,2013-05-26 04:36:00,
2013-05-25 23:41:00,54.1,43.0,30.24,SE,129,13.8,13.8,66,0.00,CLR,,0.06,WeatherDisplay:10.37,2013-05-26 04:41:00,
2013-05-25 23:46:00,54.0,42.5,30.24,ESE,105,11.5,11.5,65,0.00,CLR,,0.06,WeatherDisplay:10.37,2013-05-26 04:46:00,
2013-05-25 23:51:00,54.0,42.5,30.24,ESE,107,12.7,12.7,65,0.00,CLR,,0.06,WeatherDisplay:10.37,2013-05-26 04:51:00,
2013-05-25 23:56:00,53.9,42.4,30.24,ESE,103,12.7,12.7,65,0.00,CLR,,0.06,WeatherDisplay:10.37,2013-05-26 04:56:00,